createdAt,value
2022-08-31T04:13:15.795Z,91.00
2022-08-31T04:16:18.837Z,91.00
2022-08-31T04:19:07.902Z,91.10
2022-08-31T04:21:44.277Z,91.20
2022-08-31T04:24:13.154Z,91.30
2022-08-31T04:26:41.159Z,91.30
2022-08-31T04:29:12.984Z,91.30
2022-08-31T04:31:41.887Z,91.30
2022-08-31T04:34:09.670Z,91.30
2022-08-31T04:36:37.931Z,91.10
2022-08-31T04:39:07.588Z,90.90
2022-08-31T04:41:38.529Z,90.70
2022-08-31T04:44:07.973Z,90.50
2022-08-31T04:46:38.040Z,90.40
2022-08-31T04:49:09.318Z,90.30
2022-08-31T04:51:38.719Z,90.10
2022-08-31T04:54:09.067Z,89.80
2022-08-31T04:56:40.492Z,89.20
2022-08-31T04:59:11.621Z,88.60
2022-08-31T05:01:49.715Z,87.90
2022-08-31T05:04:39.498Z,87.20
2022-08-31T05:07:07.087Z,86.40
2022-08-31T05:09:34.768Z,85.60
2022-08-31T05:12:02.912Z,84.90
2022-08-31T05:14:30.653Z,84.00
2022-08-31T05:17:02.586Z,83.10
2022-08-31T05:19:32.392Z,82.60
2022-08-31T05:22:00.074Z,82.20
2022-08-31T05:24:28.069Z,81.80
2022-08-31T05:26:56.427Z,81.30
2022-08-31T05:29:25.745Z,80.90
2022-08-31T05:32:18.517Z,80.20
2022-08-31T05:34:46.456Z,80.00
2022-08-31T05:37:14.574Z,79.70
2022-08-31T05:39:42.299Z,79.30
2022-08-31T05:42:10.459Z,78.70
2022-08-31T05:44:38.115Z,78.20
2022-08-31T05:47:09.168Z,77.70
2022-08-31T05:49:36.718Z,77.90
2022-08-31T05:52:08.094Z,76.90
2022-08-31T05:54:38.312Z,76.20
2022-08-31T05:57:06.993Z,76.00
2022-08-31T05:59:35.398Z,75.90
2022-08-31T06:02:04.236Z,76.10
2022-08-31T06:04:34.611Z,74.20
2022-08-31T06:07:02.248Z,73.60
2022-08-31T06:09:38.959Z,73.20
2022-08-31T06:12:09.543Z,72.80
2022-08-31T06:14:38.746Z,73.30
2022-08-31T06:17:06.867Z,73.80
2022-08-31T06:19:34.428Z,74.10
2022-08-31T06:22:02.049Z,73.70
2022-08-31T06:24:31.851Z,74.00
2022-08-31T06:27:02.079Z,74.30
2022-08-31T06:29:33.111Z,74.70
2022-08-31T06:32:08.090Z,74.30
2022-08-31T06:34:39.345Z,74.40
2022-08-31T06:37:08.538Z,74.70
2022-08-31T06:40:12.064Z,73.80
2022-08-31T06:43:17.609Z,73.40
2022-08-31T06:46:00.033Z,72.90
2022-08-31T06:48:34.810Z,72.60
2022-08-31T06:51:03.664Z,72.70
2022-08-31T06:53:31.440Z,72.30
2022-08-31T06:56:20.638Z,72.30
2022-08-31T06:59:08.172Z,71.80
2022-08-31T07:01:51.215Z,71.30
2022-08-31T07:04:38.456Z,71.60
2022-08-31T07:07:07.851Z,70.70
2022-08-31T07:09:36.041Z,70.70
2022-08-31T07:12:04.549Z,70.60
2022-08-31T07:14:32.063Z,70.50
2022-08-31T07:17:03.070Z,70.10
2022-08-31T07:19:32.377Z,69.50
2022-08-31T07:22:01.656Z,68.70
2022-08-31T07:24:33.393Z,67.90
2022-08-31T07:27:04.753Z,68.20
2022-08-31T07:29:55.158Z,68.60
2022-08-31T07:32:24.120Z,68.20
2022-08-31T07:34:58.519Z,68.20
2022-08-31T07:37:49.741Z,67.50
2022-08-31T07:40:37.847Z,68.00
2022-08-31T07:43:07.526Z,67.90
2022-08-31T07:45:39.231Z,66.90
2022-08-31T07:48:07.499Z,67.90
2022-08-31T07:50:57.773Z,67.90
2022-08-31T07:53:47.671Z,68.40
2022-08-31T07:56:35.116Z,69.00
2022-08-31T07:59:15.058Z,69.00
2022-08-31T08:01:45.061Z,69.90
2022-08-31T08:04:15.454Z,69.70
2022-08-31T08:07:06.056Z,69.50
2022-08-31T08:09:55.106Z,69.50
2022-08-31T08:12:42.869Z,69.10
2022-08-31T08:15:18.538Z,68.20
2022-08-31T08:18:18.325Z,68.30
2022-08-31T08:20:52.693Z,68.40
2022-08-31T08:23:26.701Z,67.50
2022-08-31T08:26:34.608Z,67.30
2022-08-31T08:29:06.295Z,66.60
2022-08-31T08:31:37.514Z,66.80
2022-08-31T08:34:05.928Z,65.60
2022-08-31T08:36:37.217Z,65.60
2022-08-31T08:39:08.889Z,65.20
2022-08-31T08:41:40.690Z,64.50
2022-08-31T08:44:11.876Z,63.10
2022-08-31T08:46:50.884Z,61.90
2022-08-31T08:49:52.145Z,61.40
2022-08-31T08:52:24.531Z,61.50
2022-08-31T08:54:54.303Z,60.80
2022-08-31T08:57:31.146Z,60.40
2022-08-31T09:00:06.599Z,60.20
2022-08-31T09:02:43.802Z,59.60
2022-08-31T09:05:51.555Z,60.50
2022-08-31T09:09:09.938Z,60.40
2022-08-31T09:11:49.574Z,60.00
2022-08-31T09:14:29.270Z,59.10
2022-08-31T09:17:16.418Z,58.10
2022-08-31T09:20:01.870Z,57.20
2022-08-31T09:22:34.554Z,56.70
2022-08-31T09:25:03.640Z,56.50
2022-08-31T09:27:59.047Z,56.60
2022-08-31T09:30:44.754Z,57.00
2022-08-31T09:33:20.450Z,57.20
2022-08-31T09:35:50.935Z,56.10
2022-08-31T09:38:39.150Z,56.00
2022-08-31T09:41:32.610Z,56.20
2022-08-31T09:44:21.827Z,56.70
2022-08-31T09:46:52.130Z,56.70
2022-08-31T09:49:32.392Z,56.00
2022-08-31T09:52:44.027Z,56.50
2022-08-31T09:55:17.693Z,56.70
2022-08-31T09:58:04.422Z,56.00
2022-08-31T10:00:32.908Z,54.80
2022-08-31T10:03:20.838Z,54.90
2022-08-31T10:05:50.556Z,54.40
2022-08-31T10:08:49.140Z,54.30
2022-08-31T10:11:23.157Z,53.60
2022-08-31T10:14:20.410Z,54.20
2022-08-31T10:16:52.410Z,54.20
2022-08-31T10:19:30.376Z,53.80
2022-08-31T10:22:06.534Z,54.10
2022-08-31T10:24:55.084Z,53.90
2022-08-31T10:27:32.172Z,53.50
2022-08-31T10:30:18.140Z,53.00
2022-08-31T10:32:51.003Z,53.50
2022-08-31T10:35:37.507Z,54.00
2022-08-31T10:38:08.559Z,53.00
2022-08-31T10:40:44.834Z,52.70
2022-08-31T10:43:17.057Z,52.70
2022-08-31T10:45:49.210Z,51.50
2022-08-31T10:48:19.359Z,51.70
2022-08-31T10:50:50.569Z,50.70
2022-08-31T10:53:50.588Z,50.60
2022-08-31T10:56:49.755Z,50.70
2022-08-31T10:59:33.306Z,50.80
2022-08-31T11:02:31.306Z,50.90
2022-08-31T11:05:26.431Z,48.90
2022-08-31T11:08:14.959Z,48.80
2022-08-31T11:10:51.843Z,49.00
2022-08-31T11:13:44.267Z,48.80
2022-08-31T11:16:29.395Z,48.90
2022-08-31T11:19:28.797Z,48.40
2022-08-31T11:22:37.880Z,48.70
2022-08-31T11:25:33.328Z,48.80
2022-08-31T11:28:11.660Z,49.50
2022-08-31T11:30:48.092Z,49.80
2022-08-31T11:33:25.015Z,49.00
2022-08-31T11:36:06.065Z,49.70
2022-08-31T11:39:03.567Z,48.50
2022-08-31T11:41:46.962Z,48.10
2022-08-31T11:44:29.953Z,48.00
2022-08-31T11:47:21.240Z,48.60
2022-08-31T11:49:55.876Z,48.50
2022-08-31T11:52:36.027Z,48.50
2022-08-31T11:55:14.591Z,48.30
2022-08-31T11:58:12.136Z,47.40
2022-08-31T12:00:58.680Z,47.20
2022-08-31T12:03:51.442Z,47.20
2022-08-31T12:06:25.627Z,47.50
2022-08-31T12:09:01.924Z,47.10
2022-08-31T12:11:47.803Z,47.40
2022-08-31T12:14:37.935Z,47.40
2022-08-31T12:17:21.780Z,47.00
2022-08-31T12:20:08.279Z,46.90
2022-08-31T12:23:20.626Z,47.50
2022-08-31T12:26:07.769Z,47.90
2022-08-31T12:29:10.169Z,47.90
2022-08-31T12:31:40.929Z,47.30
2022-08-31T12:34:17.035Z,47.50
2022-08-31T12:36:44.459Z,47.60
2022-08-31T12:39:25.462Z,47.80
2022-08-31T12:41:54.422Z,47.70
2022-08-31T12:44:25.157Z,47.80
2022-08-31T12:47:06.168Z,47.80
2022-08-31T12:49:42.621Z,47.60
2022-08-31T12:52:20.168Z,47.70
2022-08-31T12:55:16.817Z,47.80
2022-08-31T12:57:57.315Z,48.20
2022-08-31T13:00:34.663Z,48.70
2022-08-31T13:03:25.230Z,49.60
2022-08-31T13:06:32.145Z,50.10
2022-08-31T13:09:00.920Z,50.50
2022-08-31T13:11:42.491Z,50.90
2022-08-31T13:14:24.511Z,51.30
2022-08-31T13:16:59.055Z,51.60
2022-08-31T13:19:29.536Z,51.90
2022-08-31T13:21:58.607Z,52.00
2022-08-31T13:24:34.918Z,52.10
2022-08-31T13:27:24.678Z,51.70
2022-08-31T13:29:55.927Z,51.40
2022-08-31T13:32:34.484Z,51.80
2022-08-31T13:35:05.587Z,52.00
2022-08-31T13:37:52.688Z,52.40
2022-08-31T13:40:24.563Z,53.00
2022-08-31T13:42:57.091Z,53.50
2022-08-31T13:45:31.030Z,54.10
2022-08-31T13:48:03.139Z,54.60
2022-08-31T13:50:35.436Z,54.90
2022-08-31T13:55:52.956Z,55.40
2022-08-31T13:58:30.867Z,55.50
2022-08-31T14:01:19.941Z,55.50
2022-08-31T14:03:59.069Z,55.90
2022-08-31T14:06:29.641Z,56.10
2022-08-31T14:09:03.924Z,56.20
2022-08-31T14:11:33.700Z,56.50
2022-08-31T14:14:08.735Z,56.50
2022-08-31T14:16:43.797Z,56.70
2022-08-31T14:19:34.118Z,56.80
2022-08-31T14:22:31.663Z,57.30
2022-08-31T14:25:00.889Z,57.30
2022-08-31T14:27:29.572Z,57.40
2022-08-31T14:29:58.311Z,57.60
2022-08-31T14:32:27.627Z,57.90
2022-08-31T14:34:55.207Z,57.90
2022-08-31T14:37:23.688Z,57.00
2022-08-31T14:39:58.164Z,57.20
2022-08-31T14:42:28.694Z,56.80
2022-08-31T14:45:10.635Z,57.10
2022-08-31T14:47:43.737Z,56.80
2022-08-31T14:50:14.037Z,57.00
2022-08-31T14:52:44.631Z,56.70
2022-08-31T14:55:13.613Z,56.80
2022-08-31T14:57:45.783Z,56.70
2022-08-31T15:00:23.317Z,56.70
2022-08-31T15:02:54.961Z,56.70
2022-08-31T15:05:24.757Z,56.90
2022-08-31T15:07:54.178Z,56.80
2022-08-31T15:10:25.279Z,56.40
2022-08-31T15:12:53.755Z,56.20
2022-08-31T15:15:21.330Z,56.50
2022-08-31T15:17:51.523Z,56.70
2022-08-31T15:20:20.119Z,56.80
2022-08-31T15:22:48.439Z,56.90
2022-08-31T15:25:19.789Z,57.40
2022-08-31T15:27:47.327Z,58.50
2022-08-31T15:30:18.777Z,59.50
2022-08-31T15:32:46.920Z,60.90
2022-08-31T15:35:22.418Z,61.80
2022-08-31T15:37:53.143Z,62.60
2022-08-31T15:40:22.059Z,63.40
2022-08-31T15:42:50.319Z,63.30
2022-08-31T15:45:17.808Z,66.80
2022-08-31T15:48:04.296Z,72.00
2022-08-31T15:50:32.609Z,73.90
2022-08-31T15:53:08.819Z,76.70
2022-08-31T15:55:40.985Z,78.50
2022-08-31T15:58:09.407Z,79.90
2022-08-31T16:00:37.235Z,80.90
2022-08-31T16:03:05.172Z,81.70
2022-08-31T16:05:43.436Z,82.50
2022-08-31T16:08:12.702Z,83.20
2022-08-31T16:10:47.339Z,83.70
2022-08-31T16:13:16.360Z,84.30
2022-08-31T16:15:50.986Z,84.80
2022-08-31T16:18:21.274Z,85.50
2022-08-31T16:20:50.668Z,86.10
2022-08-31T16:23:18.101Z,86.70
2022-08-31T16:25:49.157Z,86.60
2022-08-31T16:28:20.835Z,86.90
2022-08-31T16:30:51.087Z,87.40
2022-08-31T16:33:20.045Z,87.70
2022-08-31T16:35:47.906Z,88.10
2022-08-31T16:38:15.413Z,88.50
2022-08-31T16:40:43.537Z,88.70
2022-08-31T16:43:11.380Z,88.70
2022-08-31T16:45:40.490Z,88.70
2022-08-31T16:48:27.712Z,88.90
2022-08-31T16:51:02.422Z,89.40
2022-08-31T16:53:30.888Z,89.90
2022-08-31T16:56:00.151Z,90.10
2022-08-31T16:58:50.605Z,90.40
2022-08-31T17:01:23.480Z,90.70
2022-08-31T17:03:53.994Z,90.70
2022-08-31T17:06:22.344Z,90.70
2022-08-31T17:08:53.399Z,90.80
2022-08-31T17:11:32.198Z,91.00
2022-08-31T17:14:03.272Z,91.20
2022-08-31T17:16:34.655Z,91.60
2022-08-31T17:19:07.469Z,91.70
2022-08-31T17:21:46.005Z,92.00
2022-08-31T17:24:16.088Z,92.20
2022-08-31T17:26:43.487Z,92.30
2022-08-31T17:29:11.068Z,92.50
2022-08-31T17:31:44.153Z,92.70
2022-08-31T17:34:14.631Z,92.90
2022-08-31T17:36:45.867Z,93.10
2022-08-31T17:39:15.439Z,93.30
2022-08-31T17:41:44.446Z,93.70
2022-08-31T17:44:16.533Z,94.00
2022-08-31T17:46:47.113Z,94.00
2022-08-31T17:49:15.724Z,94.20
2022-08-31T17:51:45.736Z,94.30
2022-08-31T17:54:15.387Z,94.50
2022-08-31T17:56:47.601Z,94.70
2022-08-31T17:59:23.967Z,94.70
2022-08-31T18:01:53.981Z,95.00
2022-08-31T18:04:23.716Z,95.10
2022-08-31T18:06:55.086Z,95.20
2022-08-31T18:09:31.968Z,95.30
2022-08-31T18:12:00.635Z,95.50
2022-08-31T18:14:30.127Z,95.50
2022-08-31T18:16:59.358Z,95.80
2022-08-31T18:19:28.756Z,95.80
2022-08-31T18:21:57.157Z,96.20
2022-08-31T18:24:24.698Z,96.00
2022-08-31T18:26:52.838Z,96.10
2022-08-31T18:29:24.882Z,96.10
2022-08-31T18:31:54.102Z,96.30
2022-08-31T18:34:24.943Z,96.40
2022-08-31T18:36:55.095Z,96.50
2022-08-31T18:39:47.614Z,96.70
2022-08-31T18:42:32.406Z,96.40
2022-08-31T18:45:18.802Z,96.40
2022-08-31T18:48:23.342Z,96.30
2022-08-31T18:50:46.776Z,96.40
2022-08-31T18:53:27.729Z,96.10
2022-08-31T18:56:16.969Z,96.20
2022-08-31T18:58:44.418Z,96.30
2022-08-31T19:01:14.041Z,96.20
2022-08-31T19:03:42.768Z,96.10
2022-08-31T19:06:20.582Z,96.40
2022-08-31T19:08:49.027Z,96.60
2022-08-31T19:11:16.634Z,96.70
2022-08-31T19:13:46.242Z,96.80
2022-08-31T19:16:25.959Z,96.80
2022-08-31T19:18:58.859Z,96.90
2022-08-31T19:21:31.606Z,96.80
2022-08-31T19:24:01.472Z,96.80
2022-08-31T19:26:32.428Z,96.80
2022-08-31T19:29:00.748Z,96.90
2022-08-31T19:31:29.957Z,97.10
2022-08-31T19:33:57.828Z,97.00
2022-08-31T19:36:27.074Z,97.00
2022-08-31T19:38:55.726Z,97.10
2022-08-31T19:41:25.316Z,97.10
2022-08-31T19:44:02.944Z,97.20
2022-08-31T19:46:33.505Z,97.30
2022-08-31T19:49:01.295Z,97.40
2022-08-31T19:51:29.860Z,97.60
2022-08-31T19:53:57.293Z,97.70
2022-08-31T19:56:29.522Z,97.60
2022-08-31T19:58:59.341Z,97.60
2022-08-31T20:01:33.876Z,97.80
2022-08-31T20:04:04.268Z,97.80
2022-08-31T20:06:31.814Z,97.80
2022-08-31T20:08:59.243Z,97.90
2022-08-31T20:11:29.872Z,98.00
2022-08-31T20:13:59.524Z,98.10
2022-08-31T20:16:33.669Z,98.20
2022-08-31T20:19:04.536Z,98.40
2022-08-31T20:21:34.795Z,98.50
2022-08-31T20:24:08.905Z,98.60
2022-08-31T20:26:43.590Z,98.60
2022-08-31T20:29:16.069Z,98.70
2022-08-31T20:31:47.131Z,98.80
2022-08-31T20:34:19.377Z,98.90
2022-08-31T20:36:49.963Z,98.90
2022-08-31T20:39:18.686Z,99.30
2022-08-31T20:41:58.808Z,99.00
2022-08-31T20:44:34.912Z,99.10
2022-08-31T20:47:27.015Z,99.10
2022-08-31T20:50:03.623Z,99.10
2022-08-31T20:52:34.869Z,99.10
2022-08-31T20:55:04.311Z,99.10
2022-08-31T20:57:34.129Z,99.10
2022-08-31T21:00:05.372Z,99.00
2022-08-31T21:02:34.567Z,99.10
2022-08-31T21:05:27.153Z,98.90
2022-08-31T21:07:53.245Z,98.80
2022-08-31T21:10:35.689Z,98.90
2022-08-31T21:13:07.927Z,98.90
2022-08-31T21:15:39.344Z,98.80
2022-08-31T21:18:06.993Z,98.90
2022-08-31T21:20:35.526Z,98.70
2022-08-31T21:23:03.095Z,98.70
2022-08-31T21:25:30.814Z,98.70
2022-08-31T21:27:59.958Z,98.60
2022-08-31T21:30:27.711Z,98.60
2022-08-31T21:32:54.967Z,98.70
2022-08-31T21:35:22.271Z,98.70
2022-08-31T21:37:49.937Z,98.70
2022-08-31T21:40:18.394Z,98.80
2022-08-31T21:42:45.971Z,98.80
2022-08-31T21:45:13.571Z,98.80
2022-08-31T21:47:41.000Z,98.80
2022-08-31T21:50:08.947Z,98.90
2022-08-31T21:52:36.351Z,98.90
2022-08-31T21:55:05.697Z,99.00
2022-08-31T21:57:33.161Z,98.90
2022-08-31T22:00:01.852Z,99.30
2022-08-31T22:02:29.923Z,99.00
2022-08-31T22:04:57.365Z,99.10
2022-08-31T22:07:25.517Z,99.10
2022-08-31T22:09:54.439Z,99.00
2022-08-31T22:12:23.879Z,98.90
2022-08-31T22:14:51.468Z,98.70
2022-08-31T22:17:18.729Z,98.50
2022-08-31T22:19:46.355Z,97.90
2022-08-31T22:22:13.825Z,96.80
2022-08-31T22:24:41.602Z,96.40
2022-08-31T22:27:11.143Z,95.90
2022-08-31T22:29:40.694Z,95.90
2022-08-31T22:32:12.065Z,95.70
2022-08-31T22:34:41.021Z,95.40
2022-08-31T22:37:09.089Z,95.20
2022-08-31T22:39:39.860Z,94.80
2022-08-31T22:42:08.580Z,94.50
2022-08-31T22:44:37.573Z,94.40
2022-08-31T22:47:05.515Z,93.90
2022-08-31T22:49:33.195Z,93.80
2022-08-31T22:52:00.733Z,93.60
2022-08-31T22:54:28.188Z,93.50
2022-08-31T22:56:55.562Z,93.60
2022-08-31T22:59:28.259Z,93.50
2022-08-31T23:02:01.611Z,93.50
2022-08-31T23:04:30.367Z,93.40
2022-08-31T23:06:59.384Z,93.20
2022-08-31T23:09:30.195Z,93.00
2022-08-31T23:11:59.929Z,93.00
2022-08-31T23:14:28.012Z,93.00
2022-08-31T23:16:59.025Z,93.00
2022-08-31T23:19:38.907Z,92.60
2022-08-31T23:22:09.476Z,92.50
2022-08-31T23:24:44.889Z,92.40
2022-08-31T23:27:14.833Z,92.10
2022-08-31T23:29:46.075Z,92.10
2022-08-31T23:32:16.109Z,91.80
2022-08-31T23:34:43.943Z,91.90
2022-08-31T23:37:12.036Z,91.80
2022-08-31T23:39:43.474Z,91.60
2022-08-31T23:42:14.044Z,91.40
2022-08-31T23:44:43.591Z,91.40
2022-08-31T23:47:13.869Z,91.40
2022-08-31T23:49:42.589Z,91.30
2022-08-31T23:52:12.121Z,91.30
2022-08-31T23:54:40.195Z,91.30
2022-08-31T23:57:08.581Z,91.40
2022-08-31T23:59:49.851Z,91.60
